createdAt,value
2023-01-19T00:00:57.519Z,15.52
2023-01-19T00:03:24.467Z,15.50
2023-01-19T00:05:51.816Z,15.49
2023-01-19T00:08:19.070Z,15.58
2023-01-19T00:10:47.585Z,15.56
2023-01-19T00:13:15.082Z,15.55
2023-01-19T00:15:43.936Z,15.53
2023-01-19T00:18:11.395Z,15.55
2023-01-19T00:20:38.952Z,15.57
2023-01-19T00:23:08.002Z,15.54
2023-01-19T00:25:35.381Z,15.52
2023-01-19T00:28:02.422Z,15.47
2023-01-19T00:30:29.646Z,15.49
2023-01-19T00:32:58.473Z,15.45
2023-01-19T00:35:25.981Z,15.46
2023-01-19T00:37:52.942Z,15.45
2023-01-19T00:40:20.111Z,15.46
2023-01-19T00:42:48.536Z,15.47
2023-01-19T00:45:21.106Z,15.41
2023-01-19T00:47:50.226Z,15.47
2023-01-19T00:50:18.600Z,15.45
2023-01-19T00:52:45.839Z,15.42
2023-01-19T00:55:14.656Z,15.43
2023-01-19T00:57:42.438Z,15.47
2023-01-19T01:00:12.904Z,15.54
2023-01-19T01:02:41.083Z,15.59
2023-01-19T01:05:09.003Z,15.61
2023-01-19T01:07:41.767Z,15.59
2023-01-19T01:10:09.894Z,15.63
2023-01-19T01:12:37.317Z,15.64
2023-01-19T01:15:05.640Z,15.62
2023-01-19T01:17:32.653Z,15.66
2023-01-19T01:19:59.663Z,15.67
2023-01-19T01:22:26.844Z,15.66
2023-01-19T01:24:55.345Z,15.69
2023-01-19T01:27:22.490Z,15.72
2023-01-19T01:29:49.514Z,15.72
2023-01-19T01:32:16.828Z,15.71
2023-01-19T01:34:43.986Z,15.67
2023-01-19T01:37:11.447Z,15.66
2023-01-19T01:39:38.388Z,15.69
2023-01-19T01:42:15.885Z,15.74
2023-01-19T01:44:52.214Z,15.75
2023-01-19T01:47:24.087Z,15.73
2023-01-19T01:49:55.902Z,15.70
2023-01-19T01:52:25.479Z,15.70
2023-01-19T01:54:52.897Z,15.74
2023-01-19T01:57:23.121Z,15.74
2023-01-19T01:59:51.039Z,15.69
2023-01-19T02:02:39.790Z,15.67
2023-01-19T02:05:10.724Z,15.65
2023-01-19T02:08:02.937Z,15.67
2023-01-19T02:10:48.660Z,15.73
2023-01-19T02:13:22.579Z,15.80
2023-01-19T02:15:51.818Z,15.84
2023-01-19T02:18:21.180Z,15.80
2023-01-19T02:20:55.632Z,15.77
2023-01-19T02:23:34.264Z,15.73
2023-01-19T02:26:02.198Z,15.74
2023-01-19T02:28:30.947Z,15.75
2023-01-19T02:30:58.280Z,15.78
2023-01-19T02:33:25.412Z,15.83
2023-01-19T02:35:53.641Z,15.85
2023-01-19T02:38:21.290Z,15.85
2023-01-19T02:40:50.594Z,15.87
2023-01-19T02:43:19.203Z,15.86
2023-01-19T02:45:48.244Z,15.85
2023-01-19T02:48:18.014Z,15.85
2023-01-19T02:50:49.506Z,15.85
2023-01-19T02:53:33.993Z,15.85
2023-01-19T02:56:13.575Z,15.87
2023-01-19T02:58:48.515Z,15.85
2023-01-19T03:01:23.818Z,15.88
2023-01-19T03:03:55.968Z,15.83
2023-01-19T03:06:35.047Z,15.83
2023-01-19T03:09:04.807Z,15.83
2023-01-19T03:11:37.243Z,15.83
2023-01-19T03:14:09.112Z,15.81
2023-01-19T03:16:40.931Z,15.86
2023-01-19T03:19:12.458Z,15.83
2023-01-19T03:21:43.077Z,15.84
2023-01-19T03:24:12.279Z,15.88
2023-01-19T03:26:44.510Z,15.90
2023-01-19T03:29:13.669Z,15.89
2023-01-19T03:31:43.892Z,15.91
2023-01-19T03:34:13.312Z,15.90
2023-01-19T03:36:44.500Z,15.88
2023-01-19T03:39:14.040Z,15.86
2023-01-19T03:41:44.156Z,15.87
2023-01-19T03:44:12.178Z,15.89
2023-01-19T03:46:40.158Z,15.85
2023-01-19T03:49:08.450Z,15.90
2023-01-19T03:51:37.529Z,15.86
2023-01-19T03:54:05.673Z,15.85
2023-01-19T03:56:32.841Z,15.84
2023-01-19T03:59:01.183Z,15.86
2023-01-19T04:01:28.275Z,15.85
2023-01-19T04:03:55.432Z,15.82
2023-01-19T04:06:22.364Z,15.81
2023-01-19T04:08:50.639Z,15.75
2023-01-19T04:11:17.842Z,15.73
2023-01-19T04:13:45.093Z,15.73
2023-01-19T04:16:13.540Z,15.71
2023-01-19T04:18:40.911Z,15.71
2023-01-19T04:21:08.204Z,15.65
2023-01-19T04:23:35.225Z,15.59
2023-01-19T04:26:04.262Z,15.58
2023-01-19T04:28:32.118Z,15.53
2023-01-19T04:30:59.561Z,15.47
2023-01-19T04:33:28.432Z,15.45
2023-01-19T04:35:56.178Z,15.44
2023-01-19T04:38:23.883Z,15.44
2023-01-19T04:40:52.710Z,15.46
2023-01-19T04:43:20.072Z,15.42
2023-01-19T04:45:47.715Z,15.37
2023-01-19T04:48:15.205Z,15.39
2023-01-19T04:50:43.467Z,15.42
2023-01-19T04:53:11.077Z,15.42
2023-01-19T04:55:38.921Z,15.42
2023-01-19T04:58:05.852Z,15.46
2023-01-19T05:00:33.771Z,15.44
2023-01-19T05:03:02.404Z,15.50
2023-01-19T05:05:30.102Z,15.45
2023-01-19T05:07:58.429Z,15.45
2023-01-19T05:10:25.410Z,15.44
2023-01-19T05:12:52.557Z,15.41
2023-01-19T05:15:19.539Z,15.47
2023-01-19T05:17:46.463Z,15.44
2023-01-19T05:20:16.242Z,15.46
2023-01-19T05:22:44.049Z,15.52
2023-01-19T05:25:12.355Z,15.48
2023-01-19T05:27:39.278Z,15.45
2023-01-19T05:30:07.451Z,15.47
2023-01-19T05:32:34.387Z,15.45
2023-01-19T05:35:01.434Z,15.45
2023-01-19T05:37:28.566Z,15.40
2023-01-19T05:39:58.469Z,15.39
2023-01-19T05:42:26.837Z,15.42
2023-01-19T05:44:53.758Z,15.47
2023-01-19T05:47:20.700Z,15.48
2023-01-19T05:49:47.613Z,15.46
2023-01-19T05:52:14.954Z,15.45
2023-01-19T05:54:41.858Z,15.42
2023-01-19T05:57:09.432Z,15.41
2023-01-19T05:59:37.811Z,15.43
2023-01-19T06:02:05.873Z,15.47
2023-01-19T06:04:32.848Z,15.48
2023-01-19T06:07:02.919Z,15.43
2023-01-19T06:09:30.201Z,15.43
2023-01-19T06:11:59.467Z,15.48
2023-01-19T06:14:26.620Z,15.51
2023-01-19T06:16:54.982Z,15.53
2023-01-19T06:19:21.929Z,15.60
2023-01-19T06:21:52.145Z,15.62
2023-01-19T06:24:19.703Z,15.60
2023-01-19T06:26:49.785Z,15.65
2023-01-19T06:29:17.134Z,15.64
2023-01-19T06:31:44.185Z,15.64
2023-01-19T06:34:12.648Z,15.68
2023-01-19T06:36:39.664Z,15.64
2023-01-19T06:39:06.744Z,15.61
2023-01-19T06:41:34.749Z,15.60
2023-01-19T06:44:02.102Z,15.59
2023-01-19T06:46:29.627Z,15.63
2023-01-19T06:48:56.550Z,15.64
2023-01-19T06:51:25.630Z,15.64
2023-01-19T06:53:52.628Z,15.61
2023-01-19T06:56:19.587Z,15.60
2023-01-19T06:58:47.892Z,15.68
2023-01-19T07:01:15.145Z,15.75
2023-01-19T07:03:42.546Z,15.98
2023-01-19T07:06:09.773Z,16.35
2023-01-19T07:08:40.201Z,16.75
2023-01-19T07:11:26.361Z,17.05
2023-01-19T07:13:56.658Z,17.35
2023-01-19T07:16:24.234Z,17.61
2023-01-19T07:18:51.691Z,17.82
2023-01-19T07:21:19.305Z,17.99
2023-01-19T07:23:50.025Z,18.06
2023-01-19T07:26:19.927Z,18.11
2023-01-19T07:28:48.193Z,18.23
2023-01-19T07:31:16.123Z,18.35
2023-01-19T07:33:43.217Z,18.44
2023-01-19T07:36:10.398Z,18.57
2023-01-19T07:38:37.481Z,18.67
2023-01-19T07:41:08.098Z,18.71
2023-01-19T07:43:35.479Z,18.81
2023-01-19T07:46:04.710Z,18.80
2023-01-19T07:48:31.754Z,18.81
2023-01-19T07:51:00.813Z,18.86
2023-01-19T07:53:27.815Z,19.00
2023-01-19T07:55:56.497Z,19.15
2023-01-19T07:58:25.109Z,19.16
2023-01-19T08:00:52.692Z,19.18
2023-01-19T08:03:20.306Z,19.21
2023-01-19T08:05:51.914Z,19.32
2023-01-19T08:08:19.159Z,19.39
2023-01-19T08:10:50.321Z,19.50
2023-01-19T08:13:20.482Z,19.49
2023-01-19T08:15:51.577Z,19.51
2023-01-19T08:18:19.308Z,19.47
2023-01-19T08:20:46.578Z,19.55
2023-01-19T08:23:13.505Z,19.54
2023-01-19T08:25:42.885Z,19.72
2023-01-19T08:28:10.882Z,19.79
2023-01-19T08:30:38.564Z,19.87
2023-01-19T08:33:08.200Z,19.76
2023-01-19T08:35:37.084Z,19.64
2023-01-19T08:38:05.191Z,19.76
2023-01-19T08:40:36.778Z,19.85
2023-01-19T08:43:09.606Z,19.93
2023-01-19T08:45:38.067Z,20.04
2023-01-19T08:48:06.888Z,20.17
2023-01-19T08:50:34.578Z,20.32
2023-01-19T08:53:06.355Z,20.24
2023-01-19T08:55:35.266Z,20.12
2023-01-19T08:58:04.257Z,20.09
2023-01-19T09:00:37.950Z,20.10
2023-01-19T09:03:07.961Z,19.95
2023-01-19T09:05:38.831Z,20.00
2023-01-19T09:08:11.151Z,19.87
2023-01-19T09:10:39.174Z,19.87
2023-01-19T09:13:08.529Z,19.99
2023-01-19T09:15:38.665Z,20.10
2023-01-19T09:18:10.285Z,20.19
2023-01-19T09:20:39.123Z,20.30
2023-01-19T09:23:06.346Z,20.40
2023-01-19T09:25:33.301Z,20.40
2023-01-19T09:28:03.857Z,20.46
2023-01-19T09:30:33.146Z,20.57
2023-01-19T09:33:06.279Z,20.73
2023-01-19T09:35:38.417Z,20.77
2023-01-19T09:38:07.459Z,20.86
2023-01-19T09:40:42.263Z,20.97
2023-01-19T09:43:14.982Z,21.09
2023-01-19T09:45:48.095Z,21.22
2023-01-19T09:48:26.684Z,21.33
2023-01-19T09:50:58.329Z,21.50
2023-01-19T09:53:42.244Z,21.47
2023-01-19T09:56:14.056Z,21.39
2023-01-19T09:58:41.644Z,21.44
2023-01-19T10:01:22.231Z,21.61
2023-01-19T10:03:53.594Z,21.60
2023-01-19T10:06:23.163Z,21.49
2023-01-19T10:09:00.741Z,21.47
2023-01-19T10:11:42.034Z,21.53
2023-01-19T10:14:22.792Z,21.63
2023-01-19T10:16:57.947Z,21.68
2023-01-19T10:19:30.171Z,21.59
2023-01-19T10:22:03.847Z,21.78
2023-01-19T10:24:40.612Z,21.84
2023-01-19T10:27:15.563Z,21.85
2023-01-19T10:29:42.395Z,21.77
2023-01-19T10:32:20.196Z,21.66
2023-01-19T10:34:47.687Z,21.66
2023-01-19T10:37:22.632Z,21.78
2023-01-19T10:39:53.035Z,21.64
2023-01-19T10:42:20.173Z,21.52
2023-01-19T10:44:47.366Z,21.43
2023-01-19T10:47:17.912Z,21.40
2023-01-19T10:49:45.184Z,21.37
2023-01-19T10:52:26.732Z,21.26
2023-01-19T10:54:55.034Z,21.25
2023-01-19T10:57:28.267Z,21.30
2023-01-19T10:59:55.254Z,21.21
2023-01-19T11:02:26.705Z,21.13
2023-01-19T11:04:55.981Z,21.13
2023-01-19T11:07:28.343Z,21.15
2023-01-19T11:10:23.236Z,21.17
2023-01-19T11:13:12.877Z,20.96
2023-01-19T11:15:42.660Z,20.87
2023-01-19T11:18:24.421Z,21.04
2023-01-19T11:20:52.960Z,20.99
2023-01-19T11:23:26.086Z,20.88
2023-01-19T11:25:54.833Z,20.84
2023-01-19T11:28:28.251Z,20.89
2023-01-19T11:30:57.252Z,20.84
2023-01-19T11:33:26.152Z,20.80
2023-01-19T11:36:03.469Z,20.76
2023-01-19T11:38:32.341Z,20.69
2023-01-19T11:41:00.068Z,20.70
2023-01-19T11:43:43.575Z,20.71
2023-01-19T11:46:16.442Z,20.68
2023-01-19T11:48:48.514Z,20.61
2023-01-19T11:51:19.562Z,20.60
2023-01-19T11:53:51.909Z,20.64
2023-01-19T11:56:23.352Z,20.75
2023-01-19T11:58:50.357Z,20.75
2023-01-19T12:01:22.179Z,20.69
2023-01-19T12:03:57.524Z,20.68
2023-01-19T12:06:28.206Z,20.63
2023-01-19T12:08:59.900Z,20.70
2023-01-19T12:11:32.575Z,20.73
2023-01-19T12:14:00.467Z,20.78
2023-01-19T12:16:30.246Z,20.70
2023-01-19T12:19:00.699Z,20.73
2023-01-19T12:21:30.703Z,20.72
2023-01-19T12:24:11.571Z,20.67
2023-01-19T12:26:46.038Z,20.64
2023-01-19T12:29:15.525Z,20.65
2023-01-19T12:31:45.641Z,20.66
2023-01-19T12:34:36.043Z,20.65
2023-01-19T12:37:04.778Z,20.61
2023-01-19T12:39:37.913Z,20.59
2023-01-19T12:42:08.292Z,20.73
2023-01-19T12:44:35.915Z,20.76
2023-01-19T12:47:20.324Z,20.85
2023-01-19T12:49:50.390Z,20.70
2023-01-19T12:52:40.548Z,20.67
2023-01-19T12:55:19.996Z,20.68
2023-01-19T12:57:56.197Z,20.57
2023-01-19T13:00:35.123Z,20.61
2023-01-19T13:03:04.563Z,20.66
2023-01-19T13:05:50.578Z,20.59
2023-01-19T13:08:23.053Z,20.61
2023-01-19T13:11:14.944Z,20.69
2023-01-19T13:13:43.909Z,20.78
2023-01-19T13:16:48.294Z,20.77
2023-01-19T13:19:17.841Z,20.68
2023-01-19T13:21:46.694Z,20.67
2023-01-19T13:24:15.318Z,20.76
2023-01-19T13:26:59.932Z,20.70
2023-01-19T13:29:33.856Z,20.66
2023-01-19T13:32:02.984Z,20.58
2023-01-19T13:34:34.207Z,20.54
2023-01-19T13:37:02.097Z,20.47
2023-01-19T13:39:32.149Z,20.41
2023-01-19T13:42:05.422Z,20.33
2023-01-19T13:44:39.299Z,20.26
2023-01-19T13:47:11.896Z,20.10
2023-01-19T13:49:42.317Z,20.00
2023-01-19T13:52:14.922Z,19.92
2023-01-19T13:54:49.724Z,19.86
2023-01-19T13:57:26.058Z,19.76
2023-01-19T14:00:15.369Z,19.61
2023-01-19T14:02:54.013Z,19.49
2023-01-19T14:05:24.242Z,19.41
2023-01-19T14:08:03.886Z,19.37
2023-01-19T14:10:31.699Z,19.33
2023-01-19T14:13:01.394Z,19.27
2023-01-19T14:15:29.057Z,19.22
2023-01-19T14:18:10.389Z,19.14
2023-01-19T14:20:37.506Z,19.04
2023-01-19T14:23:05.429Z,18.96
2023-01-19T14:25:34.367Z,18.90
2023-01-19T14:28:39.344Z,18.83
2023-01-19T14:31:20.815Z,18.72
2023-01-19T14:33:49.652Z,18.68
2023-01-19T14:36:26.622Z,18.62
2023-01-19T14:38:55.626Z,18.58
2023-01-19T14:41:25.283Z,18.56
2023-01-19T14:43:56.054Z,18.57
2023-01-19T14:46:24.012Z,18.52
2023-01-19T14:48:53.059Z,18.43
2023-01-19T14:51:23.415Z,18.40
2023-01-19T14:53:53.119Z,18.32
2023-01-19T14:56:28.388Z,18.23
2023-01-19T14:58:58.025Z,18.17
2023-01-19T15:01:28.565Z,18.07
2023-01-19T15:03:58.351Z,17.99
2023-01-19T15:06:26.617Z,17.97
2023-01-19T15:08:54.509Z,17.90
2023-01-19T15:11:24.780Z,17.78
2023-01-19T15:13:52.178Z,17.71
2023-01-19T15:16:20.782Z,17.67
2023-01-19T15:18:47.705Z,17.63
2023-01-19T15:21:16.118Z,17.61
2023-01-19T15:23:43.075Z,17.51
2023-01-19T15:26:15.680Z,17.48
2023-01-19T15:28:43.490Z,17.38
2023-01-19T15:31:15.136Z,17.34
2023-01-19T15:33:44.028Z,17.32
2023-01-19T15:36:13.530Z,17.28
2023-01-19T15:38:40.625Z,17.27
2023-01-19T15:41:13.387Z,17.18
2023-01-19T15:43:40.416Z,17.19
2023-01-19T15:46:13.258Z,17.18
2023-01-19T15:48:40.308Z,17.13
2023-01-19T15:51:12.257Z,17.06
2023-01-19T15:53:40.307Z,17.06
2023-01-19T15:56:13.763Z,17.13
2023-01-19T15:58:40.774Z,17.07
2023-01-19T16:01:11.951Z,17.04
2023-01-19T16:03:42.192Z,16.98
2023-01-19T16:06:11.032Z,16.91
2023-01-19T16:08:38.359Z,16.89
2023-01-19T16:11:06.327Z,16.87
2023-01-19T16:13:34.095Z,16.86
2023-01-19T16:16:04.688Z,16.81
2023-01-19T16:18:31.902Z,16.73
2023-01-19T16:20:58.810Z,16.72
2023-01-19T16:23:27.367Z,16.75
2023-01-19T16:25:59.159Z,16.75
2023-01-19T16:28:27.100Z,16.80
2023-01-19T16:30:54.350Z,16.80
2023-01-19T16:33:21.500Z,16.81
2023-01-19T16:35:48.467Z,16.79
2023-01-19T16:38:15.422Z,16.75
2023-01-19T16:40:45.677Z,16.69
2023-01-19T16:43:15.295Z,16.65
2023-01-19T16:45:58.105Z,16.55
2023-01-19T16:48:25.920Z,16.53
2023-01-19T16:51:04.334Z,16.55
2023-01-19T16:53:32.615Z,16.54
2023-01-19T16:56:04.537Z,16.50
2023-01-19T16:58:31.683Z,16.50
2023-01-19T17:00:59.456Z,16.54
2023-01-19T17:03:27.147Z,16.54
2023-01-19T17:05:54.075Z,16.48
2023-01-19T17:08:21.875Z,16.52
2023-01-19T17:10:48.918Z,16.50
2023-01-19T17:13:17.345Z,16.48
2023-01-19T17:15:44.812Z,16.47
2023-01-19T17:18:11.745Z,16.41
2023-01-19T17:20:38.698Z,16.38
2023-01-19T17:23:05.642Z,16.39
2023-01-19T17:25:32.633Z,16.41
2023-01-19T17:28:01.246Z,16.41
2023-01-19T17:30:29.852Z,16.44
2023-01-19T17:32:56.832Z,16.41
2023-01-19T17:35:23.780Z,16.39
2023-01-19T17:37:53.524Z,16.38
2023-01-19T17:40:20.572Z,16.38
2023-01-19T17:42:48.033Z,16.38
2023-01-19T17:45:15.176Z,16.41
2023-01-19T17:47:43.743Z,16.41
2023-01-19T17:50:11.409Z,16.35
2023-01-19T17:52:38.582Z,16.33
2023-01-19T17:55:06.363Z,16.31
2023-01-19T17:57:33.392Z,16.35
2023-01-19T18:00:00.361Z,16.32
2023-01-19T18:02:27.507Z,16.31
2023-01-19T18:04:56.384Z,16.31
2023-01-19T18:07:23.409Z,16.29
2023-01-19T18:09:51.727Z,16.33
2023-01-19T18:12:19.935Z,16.25
2023-01-19T18:14:46.930Z,16.24
2023-01-19T18:17:14.136Z,16.19
2023-01-19T18:19:41.132Z,16.11
2023-01-19T18:22:09.492Z,16.19
2023-01-19T18:24:36.735Z,16.19
2023-01-19T18:27:03.993Z,16.15
2023-01-19T18:29:30.995Z,16.11
2023-01-19T18:31:57.927Z,16.11
2023-01-19T18:34:24.897Z,16.09
2023-01-19T18:36:51.788Z,16.04
2023-01-19T18:39:20.273Z,16.01
2023-01-19T18:41:47.242Z,16.03
2023-01-19T18:44:14.537Z,16.08
2023-01-19T18:46:41.707Z,15.99
2023-01-19T18:49:10.859Z,16.00
2023-01-19T18:51:40.838Z,15.99
2023-01-19T18:54:09.665Z,15.94
2023-01-19T18:56:39.444Z,15.94
2023-01-19T18:59:08.050Z,15.91
2023-01-19T19:01:37.258Z,15.89
2023-01-19T19:04:06.102Z,15.87
2023-01-19T19:06:35.382Z,15.85
2023-01-19T19:09:04.515Z,15.77
2023-01-19T19:11:33.189Z,15.82
2023-01-19T19:14:04.202Z,15.80
2023-01-19T19:16:35.398Z,15.80
2023-01-19T19:19:04.606Z,15.76
2023-01-19T19:21:31.794Z,15.72
2023-01-19T19:23:58.945Z,15.67
2023-01-19T19:26:29.379Z,15.68
2023-01-19T19:28:59.944Z,15.71
2023-01-19T19:31:31.492Z,15.67
2023-01-19T19:33:59.267Z,15.65
2023-01-19T19:36:30.321Z,15.70
2023-01-19T19:39:00.705Z,15.75
2023-01-19T19:41:30.001Z,15.77
2023-01-19T19:43:57.285Z,15.73
2023-01-19T19:46:25.777Z,15.72
2023-01-19T19:48:54.146Z,15.80
2023-01-19T19:51:24.293Z,15.84
2023-01-19T19:53:54.666Z,15.82
2023-01-19T19:56:23.996Z,15.78
2023-01-19T19:58:53.435Z,15.80
2023-01-19T20:01:27.209Z,15.83
2023-01-19T20:03:58.448Z,15.87
2023-01-19T20:06:29.193Z,15.88
2023-01-19T20:08:58.433Z,15.89
2023-01-19T20:11:29.348Z,15.92
2023-01-19T20:13:58.189Z,15.88
2023-01-19T20:16:27.247Z,15.85
2023-01-19T20:18:56.035Z,15.89
2023-01-19T20:21:26.491Z,15.86
2023-01-19T20:23:55.831Z,15.84
2023-01-19T20:26:26.181Z,15.82
2023-01-19T20:28:54.679Z,15.78
2023-01-19T20:31:23.644Z,15.78
2023-01-19T20:33:52.628Z,15.84
2023-01-19T20:36:24.775Z,15.83
2023-01-19T20:38:53.127Z,15.75
2023-01-19T20:41:21.621Z,15.75
2023-01-19T20:43:49.472Z,15.70
2023-01-19T20:46:16.848Z,15.66
2023-01-19T20:48:44.086Z,15.66
2023-01-19T20:51:13.081Z,15.65
2023-01-19T20:53:42.406Z,15.63
2023-01-19T20:56:14.622Z,15.69
2023-01-19T20:58:42.167Z,15.69
2023-01-19T21:01:11.631Z,15.69
2023-01-19T21:03:39.426Z,15.71
2023-01-19T21:06:07.286Z,15.72
2023-01-19T21:08:34.402Z,15.72
2023-01-19T21:11:03.311Z,15.71
2023-01-19T21:13:30.860Z,15.71
2023-01-19T21:15:58.174Z,15.68
2023-01-19T21:18:26.604Z,15.64
2023-01-19T21:20:54.011Z,15.65
2023-01-19T21:23:21.153Z,15.63
2023-01-19T21:25:49.333Z,15.65
2023-01-19T21:28:18.175Z,15.70
2023-01-19T21:30:45.770Z,15.68
2023-01-19T21:33:13.417Z,15.72
2023-01-19T21:35:40.349Z,15.70
2023-01-19T21:38:07.359Z,15.69
2023-01-19T21:40:34.307Z,15.66
2023-01-19T21:43:01.251Z,15.58
2023-01-19T21:45:29.628Z,15.54
2023-01-19T21:47:56.571Z,15.53
2023-01-19T21:50:23.751Z,15.54
2023-01-19T21:52:50.696Z,15.51
2023-01-19T21:55:17.914Z,15.50
2023-01-19T21:57:44.837Z,15.47
2023-01-19T22:00:12.113Z,15.46
2023-01-19T22:02:41.132Z,15.43
2023-01-19T22:05:09.850Z,15.44
2023-01-19T22:07:36.794Z,15.43
2023-01-19T22:10:04.615Z,15.44
2023-01-19T22:12:31.503Z,15.44
2023-01-19T22:14:58.445Z,15.39
2023-01-19T22:17:25.382Z,15.37
2023-01-19T22:19:53.716Z,15.35
2023-01-19T22:22:20.667Z,15.32
2023-01-19T22:24:49.806Z,15.28
2023-01-19T22:27:16.953Z,15.31
2023-01-19T22:29:44.088Z,15.30
2023-01-19T22:32:11.105Z,15.33
2023-01-19T22:34:38.021Z,15.34
2023-01-19T22:37:06.484Z,15.37
2023-01-19T22:39:34.482Z,15.36
2023-01-19T22:42:01.449Z,15.37
2023-01-19T22:44:28.406Z,15.34
2023-01-19T22:46:56.233Z,15.33
2023-01-19T22:49:23.242Z,15.33
2023-01-19T22:51:50.321Z,15.32
2023-01-19T22:54:18.599Z,15.31
2023-01-19T22:56:45.865Z,15.31
2023-01-19T22:59:12.916Z,15.32
2023-01-19T23:01:41.266Z,15.29
2023-01-19T23:04:12.297Z,15.25
2023-01-19T23:06:39.278Z,15.26
2023-01-19T23:09:07.838Z,15.32
2023-01-19T23:11:38.691Z,15.36
2023-01-19T23:14:07.399Z,15.42
2023-01-19T23:16:34.883Z,15.45
2023-01-19T23:19:02.001Z,15.54
2023-01-19T23:21:30.465Z,15.56
2023-01-19T23:23:59.439Z,15.53
2023-01-19T23:26:27.130Z,15.54
2023-01-19T23:28:57.708Z,15.53
2023-01-19T23:31:27.100Z,15.54
2023-01-19T23:33:55.687Z,15.60
2023-01-19T23:36:24.777Z,15.64
2023-01-19T23:38:52.902Z,15.66
2023-01-19T23:41:20.666Z,15.63
2023-01-19T23:43:47.760Z,15.64
2023-01-19T23:46:17.292Z,15.62
2023-01-19T23:48:44.593Z,15.60
2023-01-19T23:51:13.101Z,15.59
2023-01-19T23:53:40.549Z,15.59
2023-01-19T23:56:12.485Z,15.59
2023-01-19T23:58:40.007Z,15.60
